MSC Leanne — 3EXH3 — position and weather

sailwx.info

Track history (hours):
 
Tides and Currents Weather Stations Pressure Air Temp Water Temp Dewpoint Dewpoint Depression Visibility Wind Speed Wind Dir Waves Ship Positions

MSC Leanne

Last reported at 2014-Jul-17 20:20 UTC. Time now 2014-Jul-23 19:45 UTC.
Position N 35°52' W 025°15'.

Length 294 m; draft 13.1 m.

Type: Ship (hazmat cat A). MMSI: 357723000.

Date/timePositionNaut miles runAvg speedWind from/ knotsBaromVisibWave heightAir tempDewpointWater temp
2014-Jul-17 20:20N 35°52' W 025°15'1316.3
2014-Jul-17 19:33N 35°55' W 025°00'1616.3
2014-Jul-17 18:33N 35°59' W 024°41'1616.4
2014-Jul-17 17:34N 36°02' W 024°21'1616.4
2014-Jul-17 16:34N 36°06' W 024°01'1816.6
2014-Jul-17 15:28N 36°09' W 023°39'1616.1
2014-Jul-17 14:29N 36°12' W 023°20'1516.2
2014-Jul-17 13:33N 36°15' W 023°01'1616.1
2014-Jul-17 12:32N 36°19' W 022°41'1615.9
2014-Jul-17 11:30N 36°22' W 022°22'36216.3
2014-Jul-16 13:17N 37°23' W 014°56'1416.7
2014-Jul-16 12:28N 37°25' W 014°39'3816.7
2014-Jul-16 10:12N 37°28' W 013°52'1717.7
2014-Jul-16 09:13N 37°30' W 013°30'2118.4
2014-Jul-16 08:05N 37°32' W 013°03'1218.8
2014-Jul-16 07:27N 37°33' W 012°48'1516.7
2014-Jul-16 06:33N 37°35' W 012°29'1816.3
2014-Jul-16 05:27N 37°37' W 012°07'1716.2
2014-Jul-16 04:25N 37°38' W 011°46'1816.0
2014-Jul-16 03:17N 37°40' W 011°23'1216.2
2014-Jul-16 02:31N 37°41' W 011°08'1616.1
2014-Jul-16 01:33N 37°43' W 010°48'1616.1
2014-Jul-16 00:33N 37°45' W 010°28'1616.3
2014-Jul-15 23:33N 37°46' W 010°07'1616.2
2014-Jul-15 22:33N 37°47' W 009°47'1616.3
2014-Jul-15 21:33N 37°49' W 009°26'1716.3
2014-Jul-15 20:33N 37°50' W 009°06'1313.1
2014-Jul-15 19:33N 37°56' W 008°51'0 0.2
2014-Jul-15 18:32N 37°56' W 008°51'0 0.0
2014-Jul-15 17:31N 37°56' W 008°51'0 0.0
2014-Jul-15 16:31N 37°56' W 008°51'0 0.0
2014-Jul-15 15:31N 37°56' W 008°51'0 0.0
2014-Jul-15 14:31N 37°56' W 008°51'0 0.0
2014-Jul-15 13:31N 37°56' W 008°51'0 0.0
2014-Jul-15 12:32N 37°56' W 008°51'0 0.0
2014-Jul-15 11:32N 37°56' W 008°51'0 0.0
2014-Jul-15 10:32N 37°56' W 008°51'2 1.7
2014-Jul-15 09:33N 37°54' W 008°50'4 3.6
2014-Jul-15 08:33N 37°51' W 008°52'1110.9
2014-Jul-15 07:33N 37°42' W 009°00'4 3.6
2014-Jul-15 06:33N 37°40' W 009°04'1 1.2
2014-Jul-15 05:33N 37°41' W 009°05'1 0.9
2014-Jul-15 04:33N 37°42' W 009°06'1 0.8
2014-Jul-15 03:33N 37°42' W 009°06'1 0.5
2014-Jul-15 02:33N 37°43' W 009°07'1 1.2
2014-Jul-15 01:33N 37°42' W 009°07'1413.5
2014-Jul-15 00:33N 37°28' W 009°07'1616.1
2014-Jul-14 23:32N 37°14' W 009°16'1515.3
2014-Jul-14 22:33N 36°59' W 009°21'1515.3
2014-Jul-14 21:33N 36°46' W 009°11'1616.1
2014-Jul-14 20:33N 36°40' W 008°52'1616.3
2014-Jul-14 19:33N 36°35' W 008°33'1616.2
2014-Jul-14 18:33N 36°29' W 008°14'1616.4
2014-Jul-14 17:33N 36°24' W 007°55'1716.5
2014-Jul-14 16:33N 36°19' W 007°35'1716.8
2014-Jul-14 15:33N 36°14' W 007°15'1716.7
2014-Jul-14 14:33N 36°09' W 006°55'2019.9
2014-Jul-14 13:33N 36°04' W 006°32'24715.4
2014-Jul-13 21:33N 36°54' W 001°31'5117.0
2014-Jul-13 18:33N 37°29' W 000°44'1716.9
2014-Jul-13 17:33N 37°41' W 000°29'1716.4
2014-Jul-13 16:31N 37°55' W 000°18'1617.0
2014-Jul-13 15:33N 38°09' W 000°06'7712.9
2014-Jul-13 09:33N 39°26' W 000°18'1 0.9
2014-Jul-13 08:32N 39°26' W 000°19'0 0.0
2014-Jul-13 07:29N 39°26' W 000°19'0 0.0
2014-Jul-13 06:29N 39°26' W 000°19'0 0.0
2014-Jul-13 05:32N 39°26' W 000°19'0 0.0
2014-Jul-13 04:29N 39°26' W 000°19'0 0.0
2014-Jul-13 03:32N 39°26' W 000°19'0 0.0
2014-Jul-13 02:32N 39°26' W 000°19'0 0.0
2014-Jul-13 01:32N 39°26' W 000°19'0 0.0
2014-Jul-13 00:29N 39°26' W 000°19'0 0.0
2014-Jul-12 23:29N 39°26' W 000°19'0 0.0
2014-Jul-12 22:23N 39°26' W 000°19'0 0.0
2014-Jul-12 21:29N 39°26' W 000°19'0 0.0
2014-Jul-12 20:23N 39°26' W 000°19'0 0.0
2014-Jul-12 19:26N 39°26' W 000°19'0 0.0
2014-Jul-12 18:32N 39°26' W 000°19'0 0.0
2014-Jul-12 17:29N 39°26' W 000°19'0 0.0
2014-Jul-12 16:29N 39°26' W 000°19'0 0.0
2014-Jul-12 15:32N 39°26' W 000°19'0 0.0
2014-Jul-12 14:23N 39°26' W 000°19'0 0.0
2014-Jul-12 13:29N 39°26' W 000°19'0 0.0
2014-Jul-12 12:29N 39°26' W 000°19'0 0.0
2014-Jul-12 11:29N 39°26' W 000°19'3 3.1
2014-Jul-12 10:33N 39°25' W 000°16'7 6.6
2014-Jul-12 09:32N 39°26' W 000°07'6 5.6
2014-Jul-12 08:24N 39°30' W 000°00'1 0.5
2014-Jul-12 07:21N 39°29' E 000°00'1 1.3
2014-Jul-12 06:28N 39°29' E 000°02'5016.2
2014-Jul-12 03:22N 39°51' E 001°00'1417.5
2014-Jul-12 02:33N 39°59' E 001°16'1817.5
2014-Jul-12 01:33N 40°08' E 001°35'1717.3
2014-Jul-12 00:33N 40°18' E 001°53'1716.7
2014-Jul-11 23:33N 40°27' E 002°12'1717.2
2014-Jul-11 22:33N 40°37' E 002°30'1716.6
2014-Jul-11 21:34N 40°44' E 002°50'1716.7
2014-Jul-11 20:33N 40°53' E 003°09'1716.9
2014-Jul-11 19:31N 41°02' E 003°29'3517.3
2014-Jul-11 17:31N 41°20' E 004°08'12715.2
2014-Jul-11 09:07N 42°28' E 006°33'914.9
2014-Jul-11 08:30N 42°33' E 006°43'1715.1
2014-Jul-11 07:22N 42°42' E 007°03'1715.7
2014-Jul-11 06:18N 42°51' E 007°22'1216.7
2014-Jul-11 05:34N 42°58' E 007°36'1616.5
2014-Jul-11 04:34N 43°07' E 007°55'1616.1
2014-Jul-11 03:34N 43°15' E 008°14'1616.2
2014-Jul-11 02:34N 43°24' E 008°33'1616.2
2014-Jul-11 01:34N 43°33' E 008°52'1515.1
2014-Jul-11 00:34N 43°41' E 009°09'1515.4
2014-Jul-10 23:34N 43°49' E 009°27'1717.0
2014-Jul-10 22:34N 43°58' E 009°48'9 9.0
2014-Jul-10 21:33N 44°06' E 009°51'0 0.1
2014-Jul-10 20:31N 44°06' E 009°51'0 0.0
2014-Jul-10 19:31N 44°06' E 009°51'0 0.0
2014-Jul-10 18:31N 44°06' E 009°51'0 0.0
2014-Jul-10 17:31N 44°06' E 009°51'0 0.0
2014-Jul-10 16:31N 44°06' E 009°51'0 0.0
2014-Jul-10 15:31N 44°06' E 009°51'0 0.0
2014-Jul-10 14:33N 44°06' E 009°51'0 0.0
2014-Jul-10 13:30N 44°06' E 009°51'0 0.0
2014-Jul-10 12:33N 44°06' E 009°51'0 0.0
2014-Jul-10 11:30N 44°06' E 009°51'0 0.0
2014-Jul-10 10:33N 44°06' E 009°51'0 0.0
2014-Jul-10 09:33N 44°06' E 009°51'0 0.0
2014-Jul-10 08:33N 44°06' E 009°51'0 0.0
2014-Jul-10 07:33N 44°06' E 009°51'0 0.0
2014-Jul-10 06:33N 44°06' E 009°51'0 0.0
2014-Jul-10 05:33N 44°06' E 009°51'0 0.0
2014-Jul-10 04:33N 44°06' E 009°51'0 0.0
2014-Jul-10 03:33N 44°06' E 009°51'0 0.0
2014-Jul-10 02:33N 44°06' E 009°51'0 0.0
2014-Jul-10 01:33N 44°06' E 009°51'0 0.0
2014-Jul-10 00:33N 44°06' E 009°51'0 0.0
2014-Jul-09 23:33N 44°06' E 009°51'0 0.0
2014-Jul-09 22:33N 44°06' E 009°51'0 0.0
2014-Jul-09 21:33N 44°06' E 009°51'0 0.0
2014-Jul-09 20:33N 44°06' E 009°51'0 0.0
2014-Jul-09 19:33N 44°06' E 009°51'0 0.5
2014-Jul-09 18:34N 44°06' E 009°51'7 7.4
2014-Jul-09 17:33N 43°60' E 009°57'3 3.1
2014-Jul-09 16:34N 43°57' E 009°59'1211.6
2014-Jul-09 15:33N 43°48' E 009°50'1616.2
2014-Jul-09 14:34N 43°33' E 009°41'1918.6
2014-Jul-09 13:33N 43°14' E 009°42'3617.8
2014-Jul-09 11:33N 42°39' E 009°48'134 3.6
2014-Jul-07 22:33N 41°18' E 012°12'2617.7
2014-Jul-07 21:06N 40°55' E 012°28'917.4
2014-Jul-07 20:33N 40°48' E 012°35'  
Track history (hours):
 
Tides and Currents Weather Stations Pressure Air Temp Water Temp Dewpoint Dewpoint Depression Visibility Wind Speed Wind Dir Waves Ship Positions

MSC Leanne

Last reported at 2014-Jul-17 20:20 UTC. Time now 2014-Jul-23 19:45 UTC.
Position N 35°52' W 025°15'.

Length 294 m; draft 13.1 m.

Type: Ship (hazmat cat A). MMSI: 357723000.

Date/timePositionNaut miles runAvg speedWind from/ knotsBaromVisibWave heightAir tempDewpointWater temp
2014-Jul-17 20:20N 35°52' W 025°15'1316.3
2014-Jul-17 19:33N 35°55' W 025°00'1616.3
2014-Jul-17 18:33N 35°59' W 024°41'1616.4
2014-Jul-17 17:34N 36°02' W 024°21'1616.4
2014-Jul-17 16:34N 36°06' W 024°01'1816.6
2014-Jul-17 15:28N 36°09' W 023°39'1616.1
2014-Jul-17 14:29N 36°12' W 023°20'1516.2
2014-Jul-17 13:33N 36°15' W 023°01'1616.1
2014-Jul-17 12:32N 36°19' W 022°41'1615.9
2014-Jul-17 11:30N 36°22' W 022°22'36216.3
2014-Jul-16 13:17N 37°23' W 014°56'1416.7
2014-Jul-16 12:28N 37°25' W 014°39'3816.7
2014-Jul-16 10:12N 37°28' W 013°52'1717.7
2014-Jul-16 09:13N 37°30' W 013°30'2118.4
2014-Jul-16 08:05N 37°32' W 013°03'1218.8
2014-Jul-16 07:27N 37°33' W 012°48'1516.7
2014-Jul-16 06:33N 37°35' W 012°29'1816.3
2014-Jul-16 05:27N 37°37' W 012°07'1716.2
2014-Jul-16 04:25N 37°38' W 011°46'1816.0
2014-Jul-16 03:17N 37°40' W 011°23'1216.2
2014-Jul-16 02:31N 37°41' W 011°08'1616.1
2014-Jul-16 01:33N 37°43' W 010°48'1616.1
2014-Jul-16 00:33N 37°45' W 010°28'1616.3
2014-Jul-15 23:33N 37°46' W 010°07'1616.2
2014-Jul-15 22:33N 37°47' W 009°47'1616.3
2014-Jul-15 21:33N 37°49' W 009°26'1716.3
2014-Jul-15 20:33N 37°50' W 009°06'1313.1
2014-Jul-15 19:33N 37°56' W 008°51'0 0.2
2014-Jul-15 18:32N 37°56' W 008°51'0 0.0
2014-Jul-15 17:31N 37°56' W 008°51'0 0.0
2014-Jul-15 16:31N 37°56' W 008°51'0 0.0
2014-Jul-15 15:31N 37°56' W 008°51'0 0.0
2014-Jul-15 14:31N 37°56' W 008°51'0 0.0
2014-Jul-15 13:31N 37°56' W 008°51'0 0.0
2014-Jul-15 12:32N 37°56' W 008°51'0 0.0
2014-Jul-15 11:32N 37°56' W 008°51'0 0.0
2014-Jul-15 10:32N 37°56' W 008°51'2 1.7
2014-Jul-15 09:33N 37°54' W 008°50'4 3.6
2014-Jul-15 08:33N 37°51' W 008°52'1110.9
2014-Jul-15 07:33N 37°42' W 009°00'4 3.6
2014-Jul-15 06:33N 37°40' W 009°04'1 1.2
2014-Jul-15 05:33N 37°41' W 009°05'1 0.9
2014-Jul-15 04:33N 37°42' W 009°06'1 0.8
2014-Jul-15 03:33N 37°42' W 009°06'1 0.5
2014-Jul-15 02:33N 37°43' W 009°07'1 1.2
2014-Jul-15 01:33N 37°42' W 009°07'1413.5
2014-Jul-15 00:33N 37°28' W 009°07'1616.1
2014-Jul-14 23:32N 37°14' W 009°16'1515.3
2014-Jul-14 22:33N 36°59' W 009°21'1515.3
2014-Jul-14 21:33N 36°46' W 009°11'1616.1
2014-Jul-14 20:33N 36°40' W 008°52'1616.3
2014-Jul-14 19:33N 36°35' W 008°33'1616.2
2014-Jul-14 18:33N 36°29' W 008°14'1616.4
2014-Jul-14 17:33N 36°24' W 007°55'1716.5
2014-Jul-14 16:33N 36°19' W 007°35'1716.8
2014-Jul-14 15:33N 36°14' W 007°15'1716.7
2014-Jul-14 14:33N 36°09' W 006°55'2019.9
2014-Jul-14 13:33N 36°04' W 006°32'24715.4
2014-Jul-13 21:33N 36°54' W 001°31'5117.0
2014-Jul-13 18:33N 37°29' W 000°44'1716.9
2014-Jul-13 17:33N 37°41' W 000°29'1716.4
2014-Jul-13 16:31N 37°55' W 000°18'1617.0
2014-Jul-13 15:33N 38°09' W 000°06'7712.9
2014-Jul-13 09:33N 39°26' W 000°18'1 0.9
2014-Jul-13 08:32N 39°26' W 000°19'0 0.0
2014-Jul-13 07:29N 39°26' W 000°19'0 0.0
2014-Jul-13 06:29N 39°26' W 000°19'0 0.0
2014-Jul-13 05:32N 39°26' W 000°19'0 0.0
2014-Jul-13 04:29N 39°26' W 000°19'0 0.0
2014-Jul-13 03:32N 39°26' W 000°19'0 0.0
2014-Jul-13 02:32N 39°26' W 000°19'0 0.0
2014-Jul-13 01:32N 39°26' W 000°19'0 0.0
2014-Jul-13 00:29N 39°26' W 000°19'0 0.0
2014-Jul-12 23:29N 39°26' W 000°19'0 0.0
2014-Jul-12 22:23N 39°26' W 000°19'0 0.0
2014-Jul-12 21:29N 39°26' W 000°19'0 0.0
2014-Jul-12 20:23N 39°26' W 000°19'0 0.0
2014-Jul-12 19:26N 39°26' W 000°19'0 0.0
2014-Jul-12 18:32N 39°26' W 000°19'0 0.0
2014-Jul-12 17:29N 39°26' W 000°19'0 0.0
2014-Jul-12 16:29N 39°26' W 000°19'0 0.0
2014-Jul-12 15:32N 39°26' W 000°19'0 0.0
2014-Jul-12 14:23N 39°26' W 000°19'0 0.0
2014-Jul-12 13:29N 39°26' W 000°19'0 0.0
2014-Jul-12 12:29N 39°26' W 000°19'0 0.0
2014-Jul-12 11:29N 39°26' W 000°19'3 3.1
2014-Jul-12 10:33N 39°25' W 000°16'7 6.6
2014-Jul-12 09:32N 39°26' W 000°07'6 5.6
2014-Jul-12 08:24N 39°30' W 000°00'1 0.5
2014-Jul-12 07:21N 39°29' E 000°00'1 1.3
2014-Jul-12 06:28N 39°29' E 000°02'5016.2
2014-Jul-12 03:22N 39°51' E 001°00'1417.5
2014-Jul-12 02:33N 39°59' E 001°16'1817.5
2014-Jul-12 01:33N 40°08' E 001°35'1717.3
2014-Jul-12 00:33N 40°18' E 001°53'1716.7
2014-Jul-11 23:33N 40°27' E 002°12'1717.2
2014-Jul-11 22:33N 40°37' E 002°30'1716.6
2014-Jul-11 21:34N 40°44' E 002°50'1716.7
2014-Jul-11 20:33N 40°53' E 003°09'1716.9
2014-Jul-11 19:31N 41°02' E 003°29'3517.3
2014-Jul-11 17:31N 41°20' E 004°08'12715.2
2014-Jul-11 09:07N 42°28' E 006°33'914.9
2014-Jul-11 08:30N 42°33' E 006°43'1715.1
2014-Jul-11 07:22N 42°42' E 007°03'1715.7
2014-Jul-11 06:18N 42°51' E 007°22'1216.7
2014-Jul-11 05:34N 42°58' E 007°36'1616.5
2014-Jul-11 04:34N 43°07' E 007°55'1616.1
2014-Jul-11 03:34N 43°15' E 008°14'1616.2
2014-Jul-11 02:34N 43°24' E 008°33'1616.2
2014-Jul-11 01:34N 43°33' E 008°52'1515.1
2014-Jul-11 00:34N 43°41' E 009°09'1515.4
2014-Jul-10 23:34N 43°49' E 009°27'1717.0
2014-Jul-10 22:34N 43°58' E 009°48'9 9.0
2014-Jul-10 21:33N 44°06' E 009°51'0 0.1
2014-Jul-10 20:31N 44°06' E 009°51'0 0.0
2014-Jul-10 19:31N 44°06' E 009°51'0 0.0
2014-Jul-10 18:31N 44°06' E 009°51'0 0.0
2014-Jul-10 17:31N 44°06' E 009°51'0 0.0
2014-Jul-10 16:31N 44°06' E 009°51'0 0.0
2014-Jul-10 15:31N 44°06' E 009°51'0 0.0
2014-Jul-10 14:33N 44°06' E 009°51'0 0.0
2014-Jul-10 13:30N 44°06' E 009°51'0 0.0
2014-Jul-10 12:33N 44°06' E 009°51'0 0.0
2014-Jul-10 11:30N 44°06' E 009°51'0 0.0
2014-Jul-10 10:33N 44°06' E 009°51'0 0.0
2014-Jul-10 09:33N 44°06' E 009°51'0 0.0
2014-Jul-10 08:33N 44°06' E 009°51'0 0.0
2014-Jul-10 07:33N 44°06' E 009°51'0 0.0
2014-Jul-10 06:33N 44°06' E 009°51'0 0.0
2014-Jul-10 05:33N 44°06' E 009°51'0 0.0
2014-Jul-10 04:33N 44°06' E 009°51'0 0.0
2014-Jul-10 03:33N 44°06' E 009°51'0 0.0
2014-Jul-10 02:33N 44°06' E 009°51'0 0.0
2014-Jul-10 01:33N 44°06' E 009°51'0 0.0
2014-Jul-10 00:33N 44°06' E 009°51'0 0.0
2014-Jul-09 23:33N 44°06' E 009°51'0 0.0
2014-Jul-09 22:33N 44°06' E 009°51'0 0.0
2014-Jul-09 21:33N 44°06' E 009°51'0 0.0
2014-Jul-09 20:33N 44°06' E 009°51'0 0.0
2014-Jul-09 19:33N 44°06' E 009°51'0 0.5
2014-Jul-09 18:34N 44°06' E 009°51'7 7.4
2014-Jul-09 17:33N 43°60' E 009°57'3 3.1
2014-Jul-09 16:34N 43°57' E 009°59'1211.6
2014-Jul-09 15:33N 43°48' E 009°50'1616.2
2014-Jul-09 14:34N 43°33' E 009°41'1918.6
2014-Jul-09 13:33N 43°14' E 009°42'3617.8
2014-Jul-09 11:33N 42°39' E 009°48'134 3.6
2014-Jul-07 22:33N 41°18' E 012°12'2617.7
2014-Jul-07 21:06N 40°55' E 012°28'917.4
2014-Jul-07 20:33N 40°48' E 012°35'  

Dump ship's entire track history